Time;durP1;ratioP1;P1;durP2;ratioP2;P2;SDS_P1;SDS_P2;PMS_P1;PMS_P2;Temp;Humidity;BMP_temperature;BMP_pressure;BME280_temperature;BME280_humidity;BME280_pressure;Samples;Min_cycle;Max_cycle;Signal;HPM_P1;HPM_P2
2021/04/27 04:53:06;;;;;;;8.50;3.00;;;7.60;53.40;;;;;;4966533;28;20492;-80
2021/04/27 04:55:33;;;;;;;10.10;2.90;;;7.50;53.20;;;;;;4963374;29;20503;-80
2021/04/27 04:57:58;;;;;;;8.27;3.27;;;7.60;53.30;;;;;;4945876;29;20027;-79
2021/04/27 05:00:24;;;;;;;8.70;2.73;;;7.60;53.10;;;;;;4947060;29;20031;-80
2021/04/27 05:02:50;;;;;;;7.90;2.97;;;7.60;53.00;;;;;;4964439;28;20031;-78
2021/04/27 05:05:17;;;;;;;8.13;2.90;;;7.70;52.80;;;;;;4964483;29;20039;-78
2021/04/27 05:08:34;;;;;;;7.53;3.00;;;7.70;52.60;;;;;;4964177;29;20043;-78
2021/04/27 05:10:29;;;;;;;10.87;2.73;;;7.70;52.50;;;;;;4950336;28;20035;-77
2021/04/27 05:12:54;;;;;;;7.23;2.67;;;7.70;52.20;;;;;;4959633;29;20054;-77
2021/04/27 05:15:20;;;;;;;9.93;2.67;;;7.70;52.20;;;;;;4955520;29;20411;-77
2021/04/27 05:17:46;;;;;;;8.23;2.37;;;7.70;52.20;;;;;;4956126;29;20058;-78
2021/04/27 05:20:12;;;;;;;7.70;2.60;;;7.70;52.00;;;;;;4938001;29;20031;-78
2021/04/27 05:22:38;;;;;;;10.20;2.77;;;7.80;52.00;;;;;;4955918;29;20031;-78
2021/04/27 05:25:06;;;;;;;8.23;2.70;;;7.70;51.90;;;;;;4955352;29;20295;-77
2021/04/27 05:27:32;;;;;;;8.18;2.60;;;7.80;51.90;;;;;;4955656;29;20063;-77
2021/04/27 05:29:57;;;;;;;9.93;2.30;;;7.90;51.60;;;;;;4956117;29;20074;-77
2021/04/27 05:32:23;;;;;;;12.43;2.50;;;7.90;51.30;;;;;;4961698;29;20023;-78
2021/04/27 05:34:48;;;;;;;13.80;3.03;;;7.90;51.10;;;;;;4961487;29;20054;-89
2021/04/27 05:37:14;;;;;;;7.83;2.30;;;8.00;51.00;;;;;;4927995;29;20031;-90
2021/04/27 05:39:41;;;;;;;7.90;2.50;;;8.00;50.80;;;;;;4930198;29;20118;-88
2021/04/27 05:42:07;;;;;;;6.00;2.20;;;8.00;50.70;;;;;;4931652;29;20024;-88
2021/04/27 05:44:33;;;;;;;6.43;2.70;;;8.00;50.60;;;;;;4932656;29;20032;-89
2021/04/27 05:46:59;;;;;;;7.97;2.50;;;8.10;50.30;;;;;;4929244;29;20441;-89
2021/04/27 05:49:24;;;;;;;7.53;2.50;;;8.20;50.30;;;;;;4928461;29;20027;-89
2021/04/27 05:51:51;;;;;;;5.13;2.60;;;8.20;50.10;;;;;;4928894;29;20459;-88
2021/04/27 05:54:17;;;;;;;21.40;4.70;;;8.20;49.90;;;;;;4926788;29;20032;-92
2021/04/27 05:56:43;;;;;;;7.57;2.40;;;8.20;49.80;;;;;;4929530;29;20035;-92
2021/04/27 05:59:10;;;;;;;10.73;2.80;;;8.30;49.60;;;;;;4927624;29;20042;-92
2021/04/27 06:01:36;;;;;;;7.47;2.20;;;8.30;49.40;;;;;;4928841;29;20023;-83
2021/04/27 06:04:02;;;;;;;7.30;2.53;;;8.30;49.50;;;;;;4975752;28;20018;-92
2021/04/27 06:06:27;;;;;;;10.07;2.47;;;8.30;49.40;;;;;;4958412;29;20102;-90
2021/04/27 06:08:53;;;;;;;7.00;2.50;;;8.30;49.20;;;;;;4945879;29;20059;-91
2021/04/27 06:11:18;;;;;;;6.93;2.40;;;8.30;49.00;;;;;;4963762;29;20035;-93
2021/04/27 06:13:44;;;;;;;9.10;2.37;;;8.30;49.00;;;;;;4953249;28;20030;-92
2021/04/27 06:16:10;;;;;;;7.73;2.30;;;8.30;48.90;;;;;;4963452;28;20026;-92
2021/04/27 06:18:36;;;;;;;7.13;2.30;;;8.30;48.80;;;;;;4965358;28;20027;-91
2021/04/27 06:21:03;;;;;;;9.60;2.53;;;8.30;48.80;;;;;;4961606;28;20149;-90
2021/04/27 06:23:29;;;;;;;11.97;2.30;;;8.30;48.90;;;;;;4949108;29;20058;-92
2021/04/27 06:25:54;;;;;;;15.10;2.60;;;8.30;48.90;;;;;;4942628;29;20098;-91
2021/04/27 06:28:20;;;;;;;8.07;2.37;;;8.40;48.90;;;;;;4954829;29;20032;-90
2021/04/27 06:30:46;;;;;;;8.77;2.37;;;8.40;48.80;;;;;;4945173;29;20043;-71
2021/04/27 06:33:12;;;;;;;9.40;2.47;;;8.50;48.80;;;;;;4939018;29;20039;-74
2021/04/27 06:35:42;;;;;;;5.77;2.00;;;8.60;48.80;;;;;;4936349;29;20036;-92
2021/04/27 06:38:08;;;;;;;7.43;2.20;;;8.60;48.50;;;;;;4935497;29;20027;-91
2021/04/27 06:40:35;;;;;;;9.10;2.57;;;8.60;48.50;;;;;;4950118;29;20047;-92
2021/04/27 06:43:01;;;;;;;8.00;2.47;;;8.60;48.70;;;;;;4944765;29;20042;-92
2021/04/27 06:45:27;;;;;;;8.00;2.20;;;8.60;48.80;;;;;;4945364;29;20099;-91
2021/04/27 06:47:53;;;;;;;7.67;2.63;;;8.70;48.50;;;;;;4947942;29;20042;-93
2021/04/27 06:50:20;;;;;;;5.47;2.17;;;8.70;48.50;;;;;;4941858;29;20445;-92
2021/04/27 06:52:45;;;;;;;7.97;2.50;;;8.80;48.20;;;;;;4934002;29;20066;-93
2021/04/27 06:55:12;;;;;;;7.97;2.40;;;8.90;48.10;;;;;;4958904;29;20031;-94
2021/04/27 06:57:41;;;;;;;9.03;1.87;;;9.10;47.80;;;;;;4954098;29;20032;-92
2021/04/27 07:00:09;;;;;;;7.50;2.27;;;9.10;47.50;;;;;;4932446;29;20043;-91
2021/04/27 07:02:34;;;;;;;5.40;2.33;;;9.30;47.20;;;;;;4965451;29;20008;-92
2021/04/27 07:05:00;;;;;;;7.63;2.17;;;9.40;46.80;;;;;;4924781;29;20024;-70
2021/04/27 07:07:26;;;;;;;7.33;2.10;;;9.50;46.70;;;;;;4932116;29;20384;-67
2021/04/27 07:09:52;;;;;;;8.17;2.20;;;9.60;46.50;;;;;;4930383;29;20031;-69
2021/04/27 07:22:37;;;;;;;10.00;2.20;;;10.10;44.60;;;;;;4928792;29;20063;-84
2021/04/27 07:25:05;;;;;;;7.38;2.10;;;10.10;44.90;;;;;;4927231;29;20035;-92
2021/04/27 07:27:31;;;;;;;5.75;2.10;;;10.10;44.70;;;;;;4931828;29;20446;-90
2021/04/27 07:29:57;;;;;;;7.20;2.20;;;10.20;44.90;;;;;;4939669;28;20035;-91
2021/04/27 07:32:23;;;;;;;10.70;2.70;;;10.20;44.70;;;;;;4939111;29;20082;-92
2021/04/27 07:34:51;;;;;;;7.93;2.60;;;10.30;44.50;;;;;;4937118;29;20024;-92
2021/04/27 07:37:21;;;;;;;10.47;2.30;;;10.30;44.10;;;;;;4941385;29;20059;-92
2021/04/27 07:39:47;;;;;;;7.10;2.30;;;10.20;44.20;;;;;;4938377;29;20040;-73
2021/04/27 07:42:13;;;;;;;9.33;2.50;;;10.20;44.30;;;;;;4925052;29;20042;-70
2021/04/27 07:48:05;;;;;;;8.02;2.20;;;10.30;44.30;;;;;;4951591;29;20519;-84
2021/04/27 07:50:36;;;;;;;5.88;2.38;;;10.40;44.00;;;;;;4927596;29;20095;-90
2021/04/27 07:53:03;;;;;;;10.35;2.30;;;10.50;43.70;;;;;;4969340;28;20115;-90
2021/04/27 07:55:29;;;;;;;8.43;2.05;;;10.60;43.50;;;;;;4952813;29;20027;-90
2021/04/27 07:58:02;;;;;;;9.73;2.20;;;10.70;43.30;;;;;;4952222;29;20035;-90
2021/04/27 08:00:29;;;;;;;8.07;2.17;;;10.70;42.80;;;;;;4960782;28;20031;-91
2021/04/27 08:02:56;;;;;;;9.30;1.95;;;10.80;42.90;;;;;;4960971;28;20012;-90
2021/04/27 08:05:22;;;;;;;11.55;2.35;;;10.90;42.90;;;;;;4959247;29;20038;-91
2021/04/27 08:07:48;;;;;;;9.02;2.03;;;10.90;42.50;;;;;;4955644;28;20042;-85
2021/04/27 08:10:15;;;;;;;8.82;2.45;;;11.00;42.40;;;;;;4952991;29;20065;-90
2021/04/27 08:12:43;;;;;;;9.07;2.15;;;11.10;42.20;;;;;;4947422;29;20042;-91
2021/04/27 08:15:11;;;;;;;10.43;1.90;;;11.10;41.80;;;;;;4943896;29;20099;-90
2021/04/27 08:17:37;;;;;;;6.10;2.20;;;11.20;41.70;;;;;;4942601;29;20027;-90
2021/04/27 08:20:05;;;;;;;8.07;2.40;;;11.20;41.70;;;;;;4947326;29;20031;-90
2021/04/27 08:22:31;;;;;;;10.35;2.10;;;11.30;42.30;;;;;;4941741;29;20031;-91
2021/04/27 08:24:57;;;;;;;5.60;2.08;;;11.30;41.40;;;;;;4942441;29;20078;-89
2021/04/27 08:27:23;;;;;;;7.60;2.15;;;11.40;41.10;;;;;;4946533;28;20027;-92
2021/04/27 08:29:52;;;;;;;6.07;2.10;;;11.50;40.90;;;;;;4947093;29;20115;-91
2021/04/27 08:32:21;;;;;;;9.05;3.55;;;11.60;40.90;;;;;;4947902;28;20412;-88
2021/04/27 08:34:47;;;;;;;13.05;2.40;;;11.70;40.70;;;;;;4947311;28;20506;-88
2021/04/27 08:37:13;;;;;;;11.02;2.33;;;11.70;40.40;;;;;;4959701;28;20030;-91
2021/04/27 08:39:38;;;;;;;15.02;2.30;;;11.80;40.30;;;;;;4942054;29;20114;-86
2021/04/27 08:42:05;;;;;;;13.75;2.10;;;11.90;39.90;;;;;;4937100;29;20117;-89
2021/04/27 08:44:32;;;;;;;10.45;2.13;;;12.00;39.40;;;;;;4941006;29;20023;-88
2021/04/27 08:46:58;;;;;;;7.10;2.03;;;12.00;38.30;;;;;;4940916;29;20086;-91
2021/04/27 08:49:24;;;;;;;11.25;2.22;;;12.00;38.20;;;;;;4939937;29;20477;-91
2021/04/27 08:51:53;;;;;;;9.75;1.98;;;12.00;38.10;;;;;;4940755;28;20063;-90
2021/04/27 08:54:19;;;;;;;;;;;12.00;37.60;;;;;;4972089;28;20441;-88
2021/04/27 08:56:46;;;;;;;9.38;2.10;;;12.00;35.50;;;;;;4941618;29;19956;-89
2021/04/27 08:59:13;;;;;;;10.07;2.25;;;12.00;37.80;;;;;;4941058;29;20027;-88
2021/04/27 09:01:38;;;;;;;7.85;1.95;;;12.10;38.00;;;;;;4941689;29;20037;-89
2021/04/27 09:04:04;;;;;;;10.40;2.00;;;12.20;37.80;;;;;;4942603;29;20151;-89
2021/04/27 09:06:33;;;;;;;10.63;2.45;;;12.20;37.60;;;;;;4939569;29;20450;-91
2021/04/27 09:09:03;;;;;;;7.78;2.05;;;12.30;38.20;;;;;;4971022;28;20510;-90
2021/04/27 09:11:46;;;;;;;7.70;2.08;;;12.30;38.30;;;;;;4940200;29;20035;-89
2021/04/27 09:14:20;;;;;;;7.95;2.00;;;12.30;38.20;;;;;;4919211;29;20076;-88
2021/04/27 09:16:55;;;;;;;7.40;1.83;;;12.40;37.80;;;;;;4937968;29;20042;-89
2021/04/27 09:19:49;;;;;;;5.13;1.77;;;12.50;37.80;;;;;;4941099;29;20456;-90
2021/04/27 09:22:27;;;;;;;7.20;1.90;;;12.60;37.10;;;;;;4946937;29;20034;-90
2021/04/27 09:24:55;;;;;;;5.95;2.05;;;12.60;37.10;;;;;;4948077;29;20023;-91
2021/04/27 09:27:39;;;;;;;10.30;2.10;;;12.70;36.70;;;;;;4938484;29;20058;-89
2021/04/27 09:30:26;;;;;;;5.10;1.85;;;12.80;36.10;;;;;;4937423;29;20062;-87
2021/04/27 09:32:57;;;;;;;13.25;1.90;;;12.90;35.60;;;;;;4956916;28;20082;-85
2021/04/27 09:35:40;;;;;;;7.20;1.92;;;12.90;36.30;;;;;;4939689;29;20145;-85
2021/04/27 09:38:19;;;;;;;35.78;3.30;;;12.90;35.00;;;;;;4940331;29;20038;-83
2021/04/27 09:40:53;;;;;;;7.40;2.25;;;12.90;35.40;;;;;;4942621;29;20039;-86
2021/04/27 09:43:24;;;;;;;6.78;2.08;;;12.90;35.40;;;;;;4944550;29;20079;-86
2021/04/27 09:45:52;;;;;;;12.88;2.10;;;13.00;34.40;;;;;;4945488;29;20087;-84
2021/04/27 09:48:48;;;;;;;8.00;1.80;;;13.00;34.20;;;;;;4944993;29;20226;-86
2021/04/27 09:51:14;;;;;;;7.15;1.80;;;13.10;35.30;;;;;;4943730;28;20039;-84
2021/04/27 09:53:51;;;;;;;5.35;2.15;;;13.10;35.10;;;;;;4944012;29;20365;-85
2021/04/27 09:56:38;;;;;;;6.68;1.90;;;13.20;35.00;;;;;;4962598;29;20512;-85
2021/04/27 09:59:10;;;;;;;7.63;1.80;;;13.30;34.40;;;;;;4946105;29;20027;-86
2021/04/27 10:01:36;;;;;;;5.45;1.98;;;13.40;34.90;;;;;;4943057;29;20094;-88
2021/04/27 10:04:03;;;;;;;12.40;2.08;;;13.40;34.40;;;;;;4959155;29;20027;-84
2021/04/27 10:06:29;;;;;;;8.15;1.80;;;13.50;34.50;;;;;;4959657;29;20511;-85
2021/04/27 10:08:57;;;;;;;9.82;2.08;;;13.50;33.90;;;;;;4941542;29;20072;-86
2021/04/27 10:11:26;;;;;;;7.82;2.00;;;13.50;33.80;;;;;;4974691;28;20098;-85
2021/04/27 10:13:52;;;;;;;6.65;1.90;;;13.50;34.20;;;;;;4941599;29;20016;-82
2021/04/27 10:16:18;;;;;;;6.90;2.28;;;13.50;34.60;;;;;;4972697;28;20027;-85
2021/04/27 10:18:44;;;;;;;6.60;1.98;;;13.60;34.40;;;;;;4941270;29;20043;-87
2021/04/27 10:21:11;;;;;;;8.35;1.90;;;13.50;33.80;;;;;;4929096;29;20031;-69
2021/04/27 10:23:41;;;;;;;5.88;1.88;;;13.60;34.30;;;;;;4950424;29;20030;-67
2021/04/27 10:26:08;;;;;;;5.25;1.80;;;13.70;34.40;;;;;;4953038;29;20035;-74
2021/04/27 10:28:57;;;;;;;8.40;2.40;;;13.80;34.30;;;;;;4956615;29;20030;-80
2021/04/27 10:31:23;;;;;;;6.57;2.10;;;13.90;32.50;;;;;;4932127;29;20043;-69
2021/04/27 10:34:12;;;;;;;4.05;1.85;;;14.00;33.80;;;;;;4956422;29;20032;-78
2021/04/27 10:36:57;;;;;;;7.70;2.10;;;14.00;33.70;;;;;;4939104;29;20035;-69
2021/04/27 10:39:42;;;;;;;5.45;2.10;;;14.10;33.60;;;;;;4950564;29;20035;-81
2021/04/27 10:42:21;;;;;;;6.38;1.88;;;14.20;32.70;;;;;;4939450;29;20024;-77
2021/04/27 10:45:02;;;;;;;7.82;1.98;;;14.20;32.90;;;;;;4934115;29;20027;-78
2021/04/27 10:47:37;;;;;;;7.50;2.00;;;14.30;32.90;;;;;;4942182;29;20031;-80
2021/04/27 10:50:04;;;;;;;5.22;1.95;;;14.30;33.00;;;;;;4962808;29;20023;-79
2021/04/27 10:52:39;;;;;;;6.78;1.80;;;14.40;33.10;;;;;;4975548;28;20089;-80
2021/04/27 10:55:26;;;;;;;4.05;1.75;;;14.40;33.20;;;;;;4960063;29;20034;-80
2021/04/27 10:57:58;;;;;;;5.93;2.10;;;14.50;33.20;;;;;;4956560;29;20042;-80
2021/04/27 11:00:42;;;;;;;8.07;2.00;;;14.40;33.20;;;;;;4941353;29;20077;-79
2021/04/27 11:03:25;;;;;;;4.93;1.70;;;14.40;33.50;;;;;;4954754;29;20030;-79
2021/04/27 11:05:56;;;;;;;8.13;1.90;;;14.50;33.30;;;;;;4934001;29;20476;-76
2021/04/27 11:08:22;;;;;;;6.28;2.08;;;14.60;33.00;;;;;;4953719;29;20107;-78
2021/04/27 11:10:49;;;;;;;8.55;2.20;;;14.60;33.20;;;;;;4970242;28;20569;-79
2021/04/27 11:13:15;;;;;;;6.85;2.20;;;14.70;33.10;;;;;;4957479;29;20019;-79
2021/04/27 11:15:43;;;;;;;9.73;2.05;;;14.80;32.60;;;;;;4942455;29;20038;-80
2021/04/27 11:18:18;;;;;;;8.80;2.13;;;14.70;32.50;;;;;;4957961;29;20480;-79
2021/04/27 11:20:51;;;;;;;8.88;2.10;;;14.80;32.50;;;;;;4954930;29;20114;-79
2021/04/27 11:23:50;;;;;;;12.73;1.92;;;14.80;32.50;;;;;;4925905;29;20126;-81
2021/04/27 11:26:31;;;;;;;4.05;1.67;;;14.90;32.90;;;;;;4957481;29;20616;-80
2021/04/27 11:28:58;;;;;;;10.75;2.10;;;15.00;31.90;;;;;;4947449;29;20439;-78
2021/04/27 11:31:24;;;;;;;6.93;1.90;;;15.00;32.60;;;;;;4951676;28;20031;-77
2021/04/27 11:34:01;;;;;;;9.07;1.92;;;15.20;33.10;;;;;;4955432;29;20058;-77
2021/04/27 11:36:37;;;;;;;8.82;1.90;;;15.20;32.50;;;;;;4951530;29;20154;-78
2021/04/27 11:39:14;;;;;;;7.40;2.25;;;15.40;32.30;;;;;;4949837;29;20027;-78
2021/04/27 11:41:57;;;;;;;10.15;2.13;;;15.50;31.80;;;;;;4937269;29;20042;-78
2021/04/27 11:44:32;;;;;;;7.78;2.13;;;15.40;32.60;;;;;;4954272;29;20038;-78
2021/04/27 11:47:08;;;;;;;4.00;1.50;;;15.50;32.60;;;;;;4954509;29;20038;-77
2021/04/27 11:49:49;;;;;;;7.13;1.80;;;15.70;32.10;;;;;;4945066;29;20066;-77
2021/04/27 11:52:34;;;;;;;9.48;2.08;;;15.80;30.10;;;;;;4951308;28;20047;-77
2021/04/27 11:55:00;;;;;;;4.22;1.65;;;15.90;31.90;;;;;;4952163;28;20099;-77
2021/04/27 11:57:26;;;;;;;6.45;2.20;;;16.00;31.20;;;;;;4955322;29;20408;-79
2021/04/27 11:59:59;;;;;;;5.85;1.85;;;15.90;31.20;;;;;;4952740;29;20038;-79
2021/04/27 12:02:30;;;;;;;9.80;2.03;;;16.00;31.50;;;;;;4955186;29;20038;-80
2021/04/27 12:04:56;;;;;;;9.02;2.05;;;16.10;31.60;;;;;;4958737;29;20030;-80
2021/04/27 12:07:27;;;;;;;5.35;1.80;;;16.20;31.90;;;;;;4959170;29;20047;-80
2021/04/27 12:09:54;;;;;;;12.57;2.20;;;16.30;31.80;;;;;;4944960;29;20037;-80
2021/04/27 12:12:20;;;;;;;8.73;2.33;;;16.40;31.20;;;;;;4941641;29;20026;-78
2021/04/27 12:15:00;;;;;;;8.75;2.08;;;16.50;31.40;;;;;;4957117;29;20071;-77
2021/04/27 12:17:31;;;;;;;5.95;1.98;;;16.70;29.30;;;;;;4939842;29;20086;-78
2021/04/27 12:20:09;;;;;;;6.13;1.85;;;16.70;30.80;;;;;;4935902;29;20023;-77
2021/04/27 12:22:45;;;;;;;9.50;2.33;;;16.80;30.30;;;;;;4950937;29;20093;-75
2021/04/27 12:25:17;;;;;;;8.98;2.08;;;17.00;30.00;;;;;;4936163;28;20047;-78
2021/04/27 12:27:43;;;;;;;12.07;2.10;;;17.10;30.20;;;;;;4952298;28;20019;-76
2021/04/27 12:30:12;;;;;;;9.82;2.38;;;17.20;30.40;;;;;;4950693;28;20042;-76
2021/04/27 12:32:41;;;;;;;7.60;2.05;;;17.20;29.90;;;;;;4948797;29;20023;-76
2021/04/27 12:35:18;;;;;;;7.97;1.98;;;17.40;29.80;;;;;;4950663;29;20019;-76
2021/04/27 12:37:55;;;;;;;10.20;2.00;;;17.40;29.60;;;;;;4950425;29;20034;-77
2021/04/27 12:40:22;;;;;;;7.78;1.98;;;17.40;29.80;;;;;;4934212;29;20027;-77
2021/04/27 12:42:54;;;;;;;7.15;2.30;;;17.50;30.00;;;;;;4951873;29;20106;-77
2021/04/27 12:45:20;;;;;;;4.50;2.22;;;17.60;30.00;;;;;;4956381;29;20016;-79
2021/04/27 12:47:49;;;;;;;8.23;3.10;;;17.70;29.60;;;;;;4938869;29;20031;-78
2021/04/27 12:50:18;;;;;;;11.90;2.40;;;17.80;29.30;;;;;;4954322;29;20040;-78
2021/04/27 12:52:49;;;;;;;6.75;2.03;;;17.80;29.20;;;;;;4953887;28;20039;-78
2021/04/27 12:55:20;;;;;;;7.05;2.13;;;17.80;29.50;;;;;;4958560;29;20068;-80
2021/04/27 12:57:46;;;;;;;14.45;2.55;;;17.80;29.60;;;;;;4956119;29;20024;-78
2021/04/27 13:00:14;;;;;;;12.25;2.33;;;17.70;29.40;;;;;;4958080;29;20104;-80
2021/04/27 13:02:41;;;;;;;8.98;2.40;;;17.90;29.50;;;;;;4953378;29;20053;-79
2021/04/27 13:05:09;;;;;;;15.20;2.60;;;18.10;29.20;;;;;;4956707;29;20027;-78
2021/04/27 13:07:43;;;;;;;202.20;20.55;;;18.00;29.40;;;;;;4956961;28;20019;-77
2021/04/27 13:10:15;;;;;;;6.32;2.08;;;18.10;28.90;;;;;;4961756;29;20027;-78
2021/04/27 13:12:44;;;;;;;6.82;2.25;;;18.20;29.10;;;;;;4943778;29;20055;-77
2021/04/27 13:15:20;;;;;;;10.57;3.08;;;18.30;29.10;;;;;;4959883;29;20019;-87
2021/04/27 13:17:59;;;;;;;5.30;2.30;;;18.40;29.10;;;;;;4963082;29;20023;-86
2021/04/27 13:20:27;;;;;;;;;;;18.40;29.30;;;;;;4945574;29;20094;-84
2021/04/27 13:22:58;;;;;;;12.82;2.92;;;18.50;29.10;;;;;;4944976;29;19934;-84
2021/04/27 13:25:24;;;;;;;6.57;2.17;;;18.60;28.90;;;;;;4946221;29;20134;-86
2021/04/27 13:27:56;;;;;;;8.57;2.58;;;18.70;28.90;;;;;;4945002;29;20039;-84
2021/04/27 13:30:27;;;;;;;9.23;2.50;;;18.70;28.80;;;;;;4963708;29;20381;-85
2021/04/27 13:32:53;;;;;;;6.18;2.38;;;18.80;29.00;;;;;;4942236;29;20114;-88
2021/04/27 13:35:25;;;;;;;6.65;2.10;;;18.90;28.20;;;;;;4942986;29;20051;-89
2021/04/27 13:37:51;;;;;;;4.30;2.20;;;18.90;27.90;;;;;;4977906;29;20069;-86
2021/04/27 13:40:19;;;;;;;8.02;2.38;;;18.90;28.20;;;;;;4960899;29;20034;-90
2021/04/27 13:42:51;;;;;;;7.05;2.20;;;18.80;28.30;;;;;;4949134;29;20035;-91
2021/04/27 13:45:17;;;;;;;6.75;2.08;;;18.80;28.30;;;;;;4949512;29;20253;-91
2021/04/27 13:47:44;;;;;;;7.40;2.38;;;18.80;28.60;;;;;;4947732;29;20061;-91
2021/04/27 13:50:11;;;;;;;6.75;2.20;;;18.90;28.40;;;;;;4945722;29;20114;-90
2021/04/27 13:52:38;;;;;;;9.73;2.45;;;19.00;28.10;;;;;;4946796;29;20047;-91
2021/04/27 13:55:05;;;;;;;10.50;2.40;;;18.90;28.30;;;;;;4947735;29;20043;-88
2021/04/27 13:57:31;;;;;;;7.35;2.50;;;18.90;28.50;;;;;;4964319;29;20078;-90
2021/04/27 13:59:59;;;;;;;7.78;2.60;;;19.00;28.10;;;;;;4946915;29;20035;-90
2021/04/27 14:02:25;;;;;;;6.68;2.45;;;19.10;28.10;;;;;;4950696;29;20027;-93
2021/04/27 14:04:51;;;;;;;6.47;2.28;;;19.10;28.10;;;;;;4951673;29;20567;-92
2021/04/27 14:07:16;;;;;;;7.28;2.28;;;19.20;28.00;;;;;;4953634;28;20554;-91
2021/04/27 14:09:42;;;;;;;7.70;2.40;;;19.10;27.90;;;;;;4954495;29;20027;-92
2021/04/27 14:12:13;;;;;;;8.80;2.38;;;19.10;28.30;;;;;;4952119;29;20059;-92
2021/04/27 14:14:49;;;;;;;5.40;2.30;;;19.10;27.70;;;;;;4940402;29;20039;-92
2021/04/27 14:17:17;;;;;;;7.97;2.50;;;19.10;27.40;;;;;;4938208;29;20031;-92
2021/04/27 14:19:43;;;;;;;4.33;2.17;;;19.00;27.60;;;;;;4936372;29;20031;-91
2021/04/27 14:22:09;;;;;;;7.25;2.50;;;19.00;27.90;;;;;;4952606;29;20303;-93
2021/04/27 14:24:35;;;;;;;5.07;2.30;;;19.00;27.50;;;;;;4953389;29;20027;-91
2021/04/27 14:27:04;;;;;;;6.78;2.28;;;18.90;27.70;;;;;;4953156;29;20027;-92
2021/04/27 14:29:38;;;;;;;8.52;2.47;;;18.80;28.00;;;;;;4971409;28;20063;-91
2021/04/27 14:32:05;;;;;;;12.93;2.72;;;18.70;27.60;;;;;;4957373;29;20049;-93
2021/04/27 14:34:31;;;;;;;8.25;2.38;;;18.80;28.10;;;;;;4955165;28;20019;-93
2021/04/27 14:36:57;;;;;;;8.52;2.70;;;18.90;28.20;;;;;;4955524;29;20061;-91
2021/04/27 14:39:23;;;;;;;5.70;2.40;;;18.90;28.00;;;;;;4959008;28;20031;-93
2021/04/27 14:41:49;;;;;;;8.02;2.60;;;19.00;27.50;;;;;;4960704;28;20012;-91
2021/04/27 14:44:15;;;;;;;8.23;2.75;;;19.00;27.80;;;;;;4963524;28;20099;-92
2021/04/27 14:46:48;;;;;;;7.82;2.35;;;19.00;27.50;;;;;;4963879;28;20035;-92
2021/04/27 14:49:16;;;;;;;7.10;2.63;;;18.90;27.70;;;;;;4970410;28;20511;-93
2021/04/27 14:51:43;;;;;;;8.43;2.22;;;18.80;28.10;;;;;;4950415;28;20046;-93
2021/04/27 14:54:09;;;;;;;9.43;2.60;;;18.80;28.10;;;;;;4950447;29;20040;-93
2021/04/27 14:56:35;;;;;;;5.95;2.53;;;18.90;28.20;;;;;;4954041;29;20050;-92
2021/04/27 14:59:01;;;;;;;9.13;2.53;;;18.90;28.00;;;;;;4957064;29;20015;-92
2021/04/27 15:01:40;;;;;;;8.00;2.50;;;18.90;28.00;;;;;;4957917;28;20051;-93
2021/04/27 15:04:09;;;;;;;8.05;2.63;;;18.90;27.80;;;;;;4960070;29;20019;-93
2021/04/27 15:06:36;;;;;;;9.93;2.50;;;18.90;27.90;;;;;;4955657;29;20070;-93
2021/04/27 15:09:07;;;;;;;8.15;2.85;;;18.80;27.60;;;;;;4953603;29;20038;-94
2021/04/27 15:12:00;;;;;;;7.43;2.88;;;18.70;27.80;;;;;;4955483;29;20042;-93
2021/04/27 15:14:45;;;;;;;6.28;2.35;;;18.50;28.20;;;;;;4967130;29;20035;-91
2021/04/27 15:17:11;;;;;;;7.50;2.47;;;18.50;28.20;;;;;;4955801;29;20054;-93
2021/04/27 15:19:37;;;;;;;11.25;2.80;;;18.40;28.40;;;;;;4955224;29;20477;-92
2021/04/27 15:22:05;;;;;;;8.55;2.53;;;18.20;28.50;;;;;;4957196;29;20032;-93
2021/04/27 15:24:31;;;;;;;6.57;2.60;;;18.10;28.70;;;;;;4941438;29;20042;-93
2021/04/27 15:26:58;;;;;;;8.70;2.50;;;17.90;29.00;;;;;;4957440;29;20038;-93
2021/04/27 15:29:31;;;;;;;7.63;2.60;;;17.80;29.10;;;;;;4956884;29;20095;-94
2021/04/27 15:31:57;;;;;;;10.63;2.78;;;17.70;29.20;;;;;;4955294;29;20039;-92
2021/04/27 15:34:25;;;;;;;7.88;2.53;;;17.60;29.10;;;;;;4956520;29;20083;-93
2021/04/27 15:36:55;;;;;;;8.88;2.83;;;17.50;28.90;;;;;;4955122;29;20078;-92
2021/04/27 15:39:22;;;;;;;8.98;2.80;;;17.40;28.80;;;;;;4953606;29;20027;-94
2021/04/27 15:41:48;;;;;;;6.82;2.92;;;17.20;29.00;;;;;;4953665;29;20031;-92
2021/04/27 15:44:15;;;;;;;6.28;2.80;;;17.10;29.40;;;;;;4953761;29;20042;-93
2021/04/27 15:46:43;;;;;;;8.75;2.80;;;17.10;29.40;;;;;;4953946;29;20094;-94
2021/04/27 15:49:10;;;;;;;7.32;2.60;;;17.00;29.40;;;;;;4954649;29;20028;-92
2021/04/27 15:51:37;;;;;;;7.38;2.60;;;17.00;29.40;;;;;;4952660;28;20118;-92
2021/04/27 15:54:04;;;;;;;6.90;2.63;;;16.90;29.60;;;;;;4961387;28;20019;-92
2021/04/27 15:56:33;;;;;;;9.73;2.70;;;16.80;29.80;;;;;;4956957;29;20039;-93
2021/04/27 15:58:59;;;;;;;9.02;2.70;;;16.80;29.70;;;;;;4956503;29;20027;-92
2021/04/27 16:01:25;;;;;;;6.72;3.10;;;16.70;29.80;;;;;;4955032;29;20043;-92
2021/04/27 16:03:50;;;;;;;13.52;3.00;;;16.60;29.90;;;;;;4955046;29;20090;-93
2021/04/27 16:06:16;;;;;;;11.27;2.85;;;16.60;29.90;;;;;;4954149;29;20094;-92
2021/04/27 16:08:42;;;;;;;10.38;2.90;;;16.60;30.00;;;;;;4953023;29;20065;-92
2021/04/27 16:11:10;;;;;;;8.60;2.78;;;16.50;30.00;;;;;;4952708;29;20040;-92
2021/04/27 16:13:38;;;;;;;10.27;2.70;;;16.40;30.10;;;;;;4937393;29;20034;-93
2021/04/27 16:16:06;;;;;;;8.80;2.67;;;16.40;30.10;;;;;;4953078;29;20095;-92
2021/04/27 16:18:34;;;;;;;9.20;2.55;;;16.40;30.00;;;;;;4952855;29;20047;-92
2021/04/27 16:21:01;;;;;;;9.18;2.85;;;16.30;30.20;;;;;;4952881;29;20027;-92
2021/04/27 16:23:26;;;;;;;9.75;2.70;;;16.20;30.40;;;;;;4952945;29;20035;-91
2021/04/27 16:25:52;;;;;;;10.60;3.05;;;16.20;30.30;;;;;;4951578;29;20038;-91
2021/04/27 16:28:21;;;;;;;7.13;2.78;;;16.20;31.10;;;;;;4956797;29;20087;-92
2021/04/27 16:46:15;;;;;;;10.02;2.60;;;16.00;30.60;;;;;;5047421;28;20102;-93
2021/04/27 16:48:41;;;;;;;8.50;2.78;;;16.00;30.30;;;;;;5003919;28;20382;-91
2021/04/27 16:51:06;;;;;;;9.88;3.00;;;15.90;30.70;;;;;;5008864;28;20029;-90
2021/04/27 16:53:32;;;;;;;8.85;3.00;;;15.80;30.80;;;;;;5014059;28;20038;-90
2021/04/27 16:55:59;;;;;;;9.13;2.95;;;15.80;30.90;;;;;;5009619;28;20108;-91
2021/04/27 16:58:25;;;;;;;7.38;2.63;;;15.80;30.80;;;;;;5030519;28;20048;-91
2021/04/27 17:00:51;;;;;;;10.88;2.88;;;15.80;30.80;;;;;;5028406;28;20021;-92
2021/04/27 17:03:18;;;;;;;6.35;2.60;;;15.80;31.00;;;;;;5023391;28;20028;-91
2021/04/27 17:05:44;;;;;;;8.43;2.90;;;15.80;30.90;;;;;;5018934;28;20026;-89
2021/04/27 17:08:10;;;;;;;7.55;2.40;;;15.80;30.90;;;;;;5019229;28;20022;-91
2021/04/27 17:10:36;;;;;;;6.85;2.65;;;15.80;30.80;;;;;;5025719;28;20232;-89
2021/04/27 17:13:03;;;;;;;12.60;3.00;;;15.80;30.80;;;;;;5023411;28;20053;-89
2021/04/27 17:15:29;;;;;;;7.35;2.50;;;15.80;31.00;;;;;;5020202;28;20022;-89
2021/04/27 17:17:55;;;;;;;7.55;2.90;;;15.70;31.10;;;;;;5023423;28;20031;-89
2021/04/27 17:20:23;;;;;;;9.85;2.83;;;15.70;31.10;;;;;;5022278;28;20061;-90
2021/04/27 17:22:49;;;;;;;8.43;2.95;;;15.60;31.30;;;;;;5020786;28;20029;-89
2021/04/27 17:25:15;;;;;;;10.77;2.92;;;15.60;31.70;;;;;;5017885;28;20048;-89
2021/04/27 17:27:41;;;;;;;9.70;2.92;;;15.60;31.90;;;;;;5014088;28;20049;-88
2021/04/27 17:30:09;;;;;;;8.10;2.90;;;15.50;32.00;;;;;;4996411;28;20026;-88
2021/04/27 17:32:35;;;;;;;7.75;3.05;;;15.50;32.20;;;;;;5004514;28;20033;-87
2021/04/27 17:35:01;;;;;;;9.18;3.10;;;15.40;32.20;;;;;;4999664;28;20029;-88
2021/04/27 17:37:27;;;;;;;9.23;2.80;;;15.40;33.10;;;;;;4996175;28;20022;-89
2021/04/27 17:39:52;;;;;;;9.35;2.83;;;15.40;32.50;;;;;;4998811;28;20024;-89
2021/04/27 17:42:18;;;;;;;13.20;3.30;;;15.30;32.60;;;;;;5016481;28;20026;-88
2021/04/27 17:44:44;;;;;;;9.52;2.75;;;15.30;32.70;;;;;;4998656;28;20108;-88
2021/04/27 17:47:10;;;;;;;7.57;3.10;;;15.30;32.90;;;;;;4998650;28;20046;-89
2021/04/27 17:49:37;;;;;;;10.77;2.75;;;15.30;32.90;;;;;;5015034;28;20052;-89
2021/04/27 17:52:03;;;;;;;9.52;2.83;;;15.20;33.00;;;;;;5018388;28;20037;-89
2021/04/27 17:54:29;;;;;;;10.43;3.53;;;15.20;33.20;;;;;;5019847;28;20081;-89
2021/04/27 17:56:55;;;;;;;8.40;3.10;;;15.20;33.30;;;;;;5018400;28;20065;-89
2021/04/27 17:59:20;;;;;;;11.15;3.30;;;15.00;33.40;;;;;;5008590;28;20036;-88
2021/04/27 18:01:46;;;;;;;9.38;2.88;;;15.00;33.50;;;;;;4996566;28;20121;-89
2021/04/27 18:04:15;;;;;;;8.45;3.13;;;15.10;33.50;;;;;;4996669;28;20034;-89
2021/04/27 18:06:41;;;;;;;7.75;2.90;;;15.00;34.30;;;;;;4998766;28;20270;-91
2021/04/27 18:09:06;;;;;;;9.77;3.20;;;15.00;33.70;;;;;;4998050;28;20095;-88
2021/04/27 18:11:33;;;;;;;14.23;3.55;;;15.00;33.60;;;;;;5003022;28;20033;-88
2021/04/27 18:13:59;;;;;;;9.80;3.15;;;14.90;33.70;;;;;;5006570;28;20041;-91
2021/04/27 18:16:25;;;;;;;11.02;3.20;;;14.80;34.00;;;;;;5003113;28;20038;-90
2021/04/27 18:18:53;;;;;;;11.95;3.00;;;14.70;34.00;;;;;;5005452;28;20080;-91